Time;durP1;ratioP1;P1;durP2;ratioP2;P2;SDS_P1;SDS_P2;PMS_P1;PMS_P2;Temp;Humidity;BMP_temperature;BMP_pressure;BME280_temperature;BME280_humidity;BME280_pressure;Samples;Min_cycle;Max_cycle;Signal;HPM_P1;HPM_P2
2021/05/18 00:00:34;;;;;;;5.88;5.13;;;;;;;;;;5054706;28;20033;-73
2021/05/18 00:02:59;;;;;;;7.28;6.13;;;;;;;;;;5054345;28;20037;-73
2021/05/18 00:05:27;;;;;;;10.90;6.95;;;;;;;;;;5054444;28;20119;-73
2021/05/18 00:08:03;;;;;;;8.27;6.30;;;;;;;;;;5036748;28;20033;-73
2021/05/18 00:13:18;;;;;;;8.23;6.20;;;;;;;;;;5035811;28;20037;-73
2021/05/18 00:15:45;;;;;;;8.88;6.63;;;;;;;;;;5054682;28;20061;-73
2021/05/18 00:18:11;;;;;;;12.07;6.70;;;;;;;;;;5054281;28;20044;-73
2021/05/18 00:20:37;;;;;;;10.73;6.97;;;;;;;;;;5054074;28;20033;-73
2021/05/18 00:23:03;;;;;;;10.05;6.88;;;;;;;;;;5055045;28;20406;-74
2021/05/18 00:25:29;;;;;;;14.00;7.72;;;;;;;;;;5053796;28;20049;-73
2021/05/18 00:27:56;;;;;;;15.10;6.95;;;;;;;;;;5054325;28;20033;-73
2021/05/18 00:30:22;;;;;;;12.15;7.57;;;;;;;;;;5054369;28;20123;-73
2021/05/18 00:32:47;;;;;;;9.75;7.53;;;;;;;;;;5035584;28;20107;-74
2021/05/18 00:35:13;;;;;;;11.77;7.78;;;;;;;;;;5052902;28;20032;-74
2021/05/18 00:37:39;;;;;;;16.35;7.45;;;;;;;;;;5052393;28;20029;-73
2021/05/18 00:40:08;;;;;;;13.63;8.55;;;;;;;;;;5052443;28;20033;-73
2021/05/18 00:42:49;;;;;;;14.05;7.95;;;;;;;;;;5052655;28;20105;-74
2021/05/18 00:45:17;;;;;;;13.68;8.20;;;;;;;;;;5052903;28;20505;-74
2021/05/18 00:47:42;;;;;;;14.10;8.63;;;;;;;;;;5052401;28;20406;-74
2021/05/18 00:50:09;;;;;;;12.00;7.95;;;;;;;;;;5052543;28;20033;-74
2021/05/18 00:52:37;;;;;;;21.65;9.02;;;;;;;;;;5053558;28;20032;-74
2021/05/18 00:55:06;;;;;;;15.80;8.50;;;;;;;;;;5036400;28;20113;-73
2021/05/18 01:00:18;;;;;;;19.20;9.85;;;;;;;;;;5054452;28;20040;-73
2021/05/18 01:02:46;;;;;;;17.05;9.73;;;;;;;;;;5054254;28;20033;-73
2021/05/18 01:05:19;;;;;;;14.38;9.82;;;;;;;;;;5054378;28;20110;-73
2021/05/18 01:07:46;;;;;;;17.23;10.38;;;;;;;;;;5052460;28;20056;-74
2021/05/18 01:10:13;;;;;;;16.48;9.13;;;;;;;;;;5051737;28;20025;-74
2021/05/18 01:12:38;;;;;;;14.15;8.73;;;;;;;;;;5052096;28;20028;-74
2021/05/18 01:15:05;;;;;;;17.92;8.45;;;;;;;;;;5034890;28;20033;-74
2021/05/18 01:17:30;;;;;;;14.57;8.82;;;;;;;;;;5052511;28;20029;-74
2021/05/18 01:19:56;;;;;;;18.77;9.45;;;;;;;;;;5034651;28;20406;-73
2021/05/18 01:22:21;;;;;;;15.43;8.27;;;;;;;;;;5052529;28;20029;-73
2021/05/18 01:24:47;;;;;;;16.20;9.25;;;;;;;;;;5034877;28;20125;-74
2021/05/18 01:27:12;;;;;;;15.00;8.77;;;;;;;;;;5055481;28;20478;-74
2021/05/18 01:29:38;;;;;;;14.23;9.30;;;;;;;;;;5056435;28;20501;-74
2021/05/18 01:32:08;;;;;;;15.75;8.73;;;;;;;;;;5055522;28;20033;-74
2021/05/18 01:34:34;;;;;;;14.32;7.50;;;;;;;;;;5055751;28;20037;-74
2021/05/18 01:37:01;;;;;;;19.42;8.82;;;;;;;;;;5055833;28;20036;-74
2021/05/18 01:44:55;;;;;;;12.07;7.50;;;;;;;;;;5055177;28;20116;-74
2021/05/18 01:47:21;;;;;;;14.00;8.00;;;;;;;;;;5055658;28;20117;-74
2021/05/18 01:49:47;;;;;;;14.40;8.45;;;;;;;;;;5037765;28;20540;-74
2021/05/18 01:52:13;;;;;;;10.88;6.97;;;;;;;;;;5056220;28;20041;-73
2021/05/18 01:54:38;;;;;;;12.88;8.18;;;;;;;;;;5056736;28;20465;-73
2021/05/18 01:57:17;;;;;;;13.30;7.95;;;;;;;;;;5056281;28;20083;-73
2021/05/18 01:59:48;;;;;;;14.63;8.05;;;;;;;;;;5056530;28;20037;-73
2021/05/18 02:02:20;;;;;;;14.23;7.75;;;;;;;;;;5038862;28;20047;-74
2021/05/18 02:04:51;;;;;;;22.05;10.55;;;;;;;;;;5039008;28;20033;-73
2021/05/18 02:07:25;;;;;;;13.00;8.48;;;;;;;;;;5038525;28;20029;-73
2021/05/18 02:09:51;;;;;;;14.55;8.70;;;;;;;;;;5056484;28;20490;-73
2021/05/18 02:12:18;;;;;;;19.13;9.73;;;;;;;;;;5038370;28;20039;-73
2021/05/18 02:14:47;;;;;;;18.85;9.82;;;;;;;;;;5056177;28;20063;-73
2021/05/18 02:17:33;;;;;;;17.03;9.87;;;;;;;;;;5038686;28;20220;-73
2021/05/18 02:25:30;;;;;;;12.40;8.07;;;;;;;;;;5056261;28;20033;-72
2021/05/18 02:28:07;;;;;;;17.17;9.45;;;;;;;;;;5038035;28;20406;-73
2021/05/18 02:30:38;;;;;;;17.60;8.65;;;;;;;;;;5037964;28;20174;-72
2021/05/18 02:33:04;;;;;;;13.07;9.05;;;;;;;;;;5037887;28;20155;-72
2021/05/18 02:35:39;;;;;;;14.18;9.27;;;;;;;;;;5038456;28;20039;-72
2021/05/18 02:38:05;;;;;;;23.17;10.18;;;;;;;;;;5054722;28;20508;-72
2021/05/18 02:40:33;;;;;;;16.05;9.38;;;;;;;;;;5056175;28;20112;-72
2021/05/18 02:42:59;;;;;;;14.95;9.02;;;;;;;;;;5054732;28;20025;-72
2021/05/18 02:45:41;;;;;;;14.05;8.63;;;;;;;;;;5056051;28;20052;-72
2021/05/18 02:50:52;;;;;;;12.55;8.48;;;;;;;;;;5055819;28;20043;-74
2021/05/18 02:53:31;;;;;;;14.40;8.60;;;;;;;;;;5037052;28;20037;-73
2021/05/18 02:58:24;;;;;;;13.18;8.50;;;;;;;;;;5054511;28;20094;-73
2021/05/18 03:00:49;;;;;;;12.32;8.60;;;;;;;;;;5054306;28;20043;-73
2021/05/18 03:03:15;;;;;;;21.67;10.00;;;;;;;;;;5054495;28;20020;-75
2021/05/18 03:05:40;;;;;;;11.88;8.40;;;;;;;;;;5054064;28;20040;-75
2021/05/18 03:08:08;;;;;;;13.32;9.23;;;;;;;;;;5036071;28;20039;-76
2021/05/18 03:10:34;;;;;;;17.88;8.77;;;;;;;;;;5053332;28;20037;-73
2021/05/18 03:13:04;;;;;;;14.75;8.95;;;;;;;;;;5036202;28;20033;-72
2021/05/18 03:15:30;;;;;;;21.35;9.82;;;;;;;;;;5053915;28;20036;-72
2021/05/18 03:17:56;;;;;;;15.00;8.25;;;;;;;;;;5054004;28;20103;-73
2021/05/18 03:20:22;;;;;;;16.92;8.90;;;;;;;;;;5054219;28;20037;-73
2021/05/18 03:22:48;;;;;;;17.52;8.40;;;;;;;;;;5053427;28;20085;-73
2021/05/18 03:25:13;;;;;;;12.63;8.90;;;;;;;;;;5054003;28;20037;-73
2021/05/18 03:27:39;;;;;;;14.55;8.77;;;;;;;;;;5052642;28;20033;-72
2021/05/18 03:35:35;;;;;;;15.07;9.45;;;;;;;;;;5053457;28;20044;-73
2021/05/18 03:38:25;;;;;;;14.00;9.32;;;;;;;;;;5060272;28;20033;-72
2021/05/18 03:40:57;;;;;;;16.85;8.35;;;;;;;;;;5043959;28;20040;-73
2021/05/18 03:48:39;;;;;;;14.25;8.45;;;;;;;;;;5051600;28;20422;-73
2021/05/18 03:48:52;;;;;;;17.42;8.48;;;;;;;;;;5045021;28;20055;-72
2021/05/18 03:54:10;;;;;;;14.32;7.93;;;;;;;;;;5047541;28;20116;-72
2021/05/18 04:04:53;;;;;;;16.77;7.70;;;;;;;;;;5054107;28;20370;-72
2021/05/18 04:10:23;;;;;;;11.65;8.75;;;;;;;;;;5053600;28;20056;-72
2021/05/18 04:12:52;;;;;;;11.60;7.77;;;;;;;;;;5036183;28;20040;-72
2021/05/18 04:18:17;;;;;;;17.55;10.38;;;;;;;;;;5044934;28;20037;-72
2021/05/18 04:20:55;;;;;;;20.00;10.25;;;;;;;;;;5052707;28;20406;-73
2021/05/18 04:53:18;;;;;;;16.23;8.73;;;;;;;;;;5053317;28;20045;-72
2021/05/18 05:01:16;;;;;;;18.20;9.23;;;;;;;;;;5056277;28;20112;-72
2021/05/18 05:08:46;;;;;;;16.60;8.88;;;;;;;;;;5056351;28;20040;-72
2021/05/18 05:16:22;;;;;;;16.15;10.30;;;;;;;;;;5036921;28;20029;-72
2021/05/18 05:18:47;;;;;;;17.70;9.93;;;;;;;;;;5036661;28;20038;-72
2021/05/18 05:21:13;;;;;;;15.80;10.02;;;;;;;;;;5036703;28;20547;-72
2021/05/18 05:23:38;;;;;;;24.70;11.25;;;;;;;;;;5043128;28;20032;-71
2021/05/18 05:26:04;;;;;;;14.40;9.90;;;;;;;;;;5038421;28;20053;-71
2021/05/18 05:28:30;;;;;;;19.98;11.88;;;;;;;;;;5038721;28;20037;-71
2021/05/18 05:30:56;;;;;;;14.52;9.75;;;;;;;;;;5056763;28;20041;-72
2021/05/18 05:33:21;;;;;;;20.48;11.63;;;;;;;;;;5056377;28;20531;-72
2021/05/18 05:35:47;;;;;;;17.75;11.32;;;;;;;;;;5056409;28;20037;-73
2021/05/18 05:38:16;;;;;;;20.23;11.88;;;;;;;;;;5038529;28;20406;-73
2021/05/18 05:40:41;;;;;;;15.05;10.13;;;;;;;;;;5056430;28;20036;-72
2021/05/18 05:43:06;;;;;;;24.73;13.68;;;;;;;;;;5054847;28;20033;-72
2021/05/18 05:45:32;;;;;;;15.98;10.30;;;;;;;;;;5056074;28;20045;-73
2021/05/18 05:47:57;;;;;;;21.27;10.82;;;;;;;;;;5056135;28;20094;-73
2021/05/18 05:50:23;;;;;;;23.15;10.77;;;;;;;;;;5056372;28;20044;-73
2021/05/18 05:52:48;;;;;;;27.08;12.07;;;;;;;;;;5054944;28;20040;-72
2021/05/18 05:55:14;;;;;;;17.90;10.80;;;;;;;;;;5056216;28;20068;-73
2021/05/18 05:57:39;;;;;;;29.23;13.02;;;;;;;;;;5056256;28;20075;-72
2021/05/18 06:00:08;;;;;;;23.88;11.43;;;;;;;;;;5021290;28;20029;-72
2021/05/18 06:02:34;;;;;;;15.80;9.90;;;;;;;;;;5038260;28;20562;-72
2021/05/18 06:04:59;;;;;;;17.83;10.63;;;;;;;;;;5054446;28;20037;-72
2021/05/18 06:07:25;;;;;;;18.23;9.52;;;;;;;;;;5055617;28;20538;-71
2021/05/18 06:09:57;;;;;;;21.77;9.23;;;;;;;;;;5056197;28;20040;-72
2021/05/18 06:15:21;;;;;;;14.43;8.45;;;;;;;;;;5037777;28;20482;-72
2021/05/18 06:42:09;;;;;;;16.30;8.32;;;;;;;;;;5054576;28;20050;-71
2021/05/18 06:47:35;;;;;;;20.17;8.98;;;;;;;;;;5037398;28;20063;-72
2021/05/18 06:52:39;;;;;;;26.20;9.38;;;;;;;;;;5054634;28;20461;-72
2021/05/18 06:55:12;;;;;;;17.40;7.68;;;;;;;;;;5054387;28;20548;-73
2021/05/18 06:57:42;;;;;;;19.15;7.53;;;;;;;;;;5054096;28;20048;-72
2021/05/18 07:00:12;;;;;;;14.35;7.82;;;;;;;;;;5054399;28;20044;-72
2021/05/18 07:02:43;;;;;;;15.23;8.05;;;;;;;;;;5036553;28;20082;-72
2021/05/18 07:10:24;;;;;;;20.10;8.02;;;;;;;;;;5053746;28;20071;-72
2021/05/18 07:12:50;;;;;;;18.33;7.40;;;;;;;;;;5053722;28;20076;-73
2021/05/18 07:15:15;;;;;;;15.38;6.53;;;;;;;;;;5052891;28;20036;-74
2021/05/18 07:17:41;;;;;;;18.20;6.88;;;;;;;;;;5054130;28;20401;-74
2021/05/18 07:20:07;;;;;;;13.57;6.35;;;;;;;;;;5053668;28;20029;-73
2021/05/18 07:22:32;;;;;;;10.05;5.53;;;;;;;;;;5034584;28;20033;-74
2021/05/18 07:24:59;;;;;;;11.02;5.53;;;;;;;;;;5053796;28;20114;-74
2021/05/18 07:27:25;;;;;;;11.98;5.60;;;;;;;;;;5053842;28;20036;-74
2021/05/18 07:29:50;;;;;;;15.15;5.20;;;;;;;;;;5053630;28;20074;-73
2021/05/18 07:32:16;;;;;;;13.57;5.85;;;;;;;;;;5052996;28;20048;-74
2021/05/18 07:34:41;;;;;;;14.18;4.60;;;;;;;;;;5034355;28;20037;-74
2021/05/18 07:37:07;;;;;;;13.82;5.70;;;;;;;;;;5052744;28;20044;-74
2021/05/18 07:39:32;;;;;;;10.07;5.28;;;;;;;;;;5052832;28;20044;-74
2021/05/18 07:41:58;;;;;;;12.15;5.65;;;;;;;;;;5053243;28;20033;-74
2021/05/18 07:44:23;;;;;;;25.85;6.88;;;;;;;;;;5053004;28;20111;-73
2021/05/18 07:46:48;;;;;;;12.13;5.68;;;;;;;;;;5052966;28;20094;-73
2021/05/18 07:59:52;;;;;;;12.82;5.30;;;;;;;;;;5012792;28;20140;-71
2021/05/18 08:07:27;;;;;;;12.90;5.85;;;;;;;;;;5053169;28;20037;-72
2021/05/18 08:12:18;;;;;;;11.38;4.55;;;;;;;;;;5052712;28;20036;-72
2021/05/18 08:14:54;;;;;;;11.23;4.82;;;;;;;;;;5053145;28;20140;-71
2021/05/18 08:17:24;;;;;;;9.95;4.70;;;;;;;;;;5053014;28;20037;-72
2021/05/18 10:35:31;;;;;;;2.20;1.40;;;;;;;;;;5035544;28;20086;-75
2021/05/18 10:38:03;;;;;;;2.08;1.20;;;;;;;;;;5017131;28;20445;-75
2021/05/18 10:40:30;;;;;;;2.72;1.30;;;;;;;;;;5050917;28;20067;-75
2021/05/18 10:43:16;;;;;;;1.80;1.27;;;;;;;;;;5054959;28;20025;-75
2021/05/18 10:45:54;;;;;;;1.95;1.38;;;;;;;;;;5055021;28;20060;-75
2021/05/18 10:48:32;;;;;;;3.90;1.65;;;;;;;;;;5054936;28;20104;-75
2021/05/18 10:50:59;;;;;;;3.90;1.60;;;;;;;;;;5054640;28;20123;-74
2021/05/18 10:53:26;;;;;;;2.42;1.50;;;;;;;;;;5054737;28;20119;-75
2021/05/18 10:56:05;;;;;;;3.55;1.80;;;;;;;;;;5054958;28;20072;-75
2021/05/18 10:58:31;;;;;;;4.72;2.17;;;;;;;;;;5054254;28;20032;-75
2021/05/18 11:00:58;;;;;;;3.65;1.92;;;;;;;;;;5054814;28;20086;-74
2021/05/18 11:03:23;;;;;;;4.35;1.65;;;;;;;;;;5036754;28;20032;-74
2021/05/18 11:05:50;;;;;;;2.28;1.65;;;;;;;;;;5054831;28;20033;-74
2021/05/18 11:08:16;;;;;;;3.13;1.58;;;;;;;;;;5054300;28;20383;-74
2021/05/18 11:10:44;;;;;;;2.85;1.42;;;;;;;;;;5019902;28;20029;-74
2021/05/18 11:13:10;;;;;;;3.90;2.17;;;;;;;;;;5054500;28;20033;-75
2021/05/18 11:15:35;;;;;;;2.80;1.50;;;;;;;;;;5054367;28;20504;-75
2021/05/18 11:18:03;;;;;;;1.33;1.00;;;;;;;;;;5053291;28;20095;-74
2021/05/18 11:25:55;;;;;;;1.15;0.98;;;;;;;;;;5062732;28;20032;-75
2021/05/18 11:28:49;;;;;;;3.10;1.38;;;;;;;;;;5044152;28;20029;-74
2021/05/18 11:31:19;;;;;;;1.75;1.40;;;;;;;;;;5060521;28;20059;-74
2021/05/18 11:33:47;;;;;;;3.33;1.95;;;;;;;;;;5044790;28;20048;-74
2021/05/18 11:36:16;;;;;;;6.47;2.40;;;;;;;;;;5026473;28;20419;-74
2021/05/18 11:38:50;;;;;;;3.78;2.40;;;;;;;;;;5042994;28;20036;-74
2021/05/18 11:41:19;;;;;;;6.38;2.55;;;;;;;;;;5034183;28;20128;-74
2021/05/18 11:43:48;;;;;;;5.20;2.40;;;;;;;;;;5034436;28;20057;-74
2021/05/18 11:46:14;;;;;;;5.15;2.10;;;;;;;;;;5034353;28;20033;-74
2021/05/18 11:48:54;;;;;;;3.90;2.00;;;;;;;;;;5021364;28;20390;-74
2021/05/18 11:51:19;;;;;;;7.47;2.00;;;;;;;;;;5041002;28;20029;-74
2021/05/18 11:53:52;;;;;;;3.78;1.70;;;;;;;;;;5045045;28;20421;-74
2021/05/18 11:56:20;;;;;;;3.75;1.50;;;;;;;;;;5054346;28;20033;-75
2021/05/18 11:58:46;;;;;;;3.78;1.52;;;;;;;;;;5054579;28;20033;-75
2021/05/18 12:01:11;;;;;;;3.60;1.70;;;;;;;;;;5024512;28;20064;-75
2021/05/18 12:03:37;;;;;;;4.50;2.03;;;;;;;;;;5034137;28;20032;-74
2021/05/18 12:06:05;;;;;;;1.83;1.40;;;;;;;;;;5033948;28;20048;-74
2021/05/18 12:08:38;;;;;;;1.85;1.40;;;;;;;;;;5016116;28;20156;-75
2021/05/18 12:11:18;;;;;;;2.53;1.40;;;;;;;;;;4996510;28;20044;-75
2021/05/18 12:13:45;;;;;;;3.22;1.52;;;;;;;;;;5014312;28;20042;-75
2021/05/18 12:16:12;;;;;;;3.80;1.15;;;;;;;;;;5013664;28;20034;-74
2021/05/18 12:18:39;;;;;;;2.85;1.40;;;;;;;;;;5013685;28;20029;-75
2021/05/18 12:21:19;;;;;;;1.52;1.27;;;;;;;;;;5014317;28;20022;-75
2021/05/18 12:24:02;;;;;;;6.00;1.27;;;;;;;;;;5014113;28;20038;-75
2021/05/18 12:26:28;;;;;;;1.48;1.02;;;;;;;;;;5013735;28;20076;-75
2021/05/18 12:28:55;;;;;;;2.17;1.08;;;;;;;;;;5014358;28;20104;-78
2021/05/18 12:31:35;;;;;;;4.70;1.20;;;;;;;;;;4997498;28;20392;-76
2021/05/18 12:34:04;;;;;;;1.10;0.73;;;;;;;;;;5008633;28;20475;-75
2021/05/18 12:36:30;;;;;;;3.50;1.02;;;;;;;;;;5013254;28;20046;-74
2021/05/18 12:39:07;;;;;;;2.33;0.73;;;;;;;;;;5015894;28;20590;-74
2021/05/18 12:41:59;;;;;;;1.58;1.10;;;;;;;;;;5031806;28;20025;-74
2021/05/18 12:44:28;;;;;;;1.10;1.00;;;;;;;;;;5031952;28;20031;-74
2021/05/18 12:47:05;;;;;;;3.08;1.50;;;;;;;;;;5035469;28;20033;-75
2021/05/18 12:49:33;;;;;;;2.05;1.00;;;;;;;;;;5057233;28;20390;-75
2021/05/18 12:52:01;;;;;;;1.35;1.10;;;;;;;;;;5057311;28;20478;-74
2021/05/18 12:54:40;;;;;;;1.77;0.98;;;;;;;;;;5036782;28;20112;-74
2021/05/18 12:57:06;;;;;;;1.30;0.80;;;;;;;;;;5033044;28;20052;-74
2021/05/18 12:59:32;;;;;;;11.38;1.25;;;;;;;;;;5036855;28;20063;-76
2021/05/18 13:01:59;;;;;;;4.47;1.17;;;;;;;;;;5054467;28;20530;-76
2021/05/18 13:04:25;;;;;;;4.13;1.65;;;;;;;;;;5058356;28;20486;-77
2021/05/18 13:06:51;;;;;;;3.00;1.20;;;;;;;;;;5055841;28;20029;-76
2021/05/18 13:09:22;;;;;;;2.78;1.48;;;;;;;;;;5054760;28;20459;-77
2021/05/18 13:15:07;;;;;;;1.27;1.08;;;;;;;;;;5063134;28;20111;-78
2021/05/18 13:17:33;;;;;;;1.13;1.00;;;;;;;;;;5058037;28;20608;-77
2021/05/18 13:20:12;;;;;;;1.33;1.23;;;;;;;;;;5061017;28;20108;-77
2021/05/18 13:22:40;;;;;;;1.98;1.13;;;;;;;;;;5059693;28;20036;-76
2021/05/18 13:27:54;;;;;;;1.63;1.52;;;;;;;;;;5065438;28;20044;-75
2021/05/18 13:30:21;;;;;;;2.83;1.50;;;;;;;;;;5060088;28;20033;-75
2021/05/18 13:32:47;;;;;;;1.77;1.40;;;;;;;;;;5069892;28;20068;-76
2021/05/18 13:35:15;;;;;;;1.30;1.20;;;;;;;;;;5055893;28;20029;-76
2021/05/18 13:37:40;;;;;;;1.80;1.02;;;;;;;;;;5055842;28;20560;-76
2021/05/18 13:40:06;;;;;;;3.40;1.60;;;;;;;;;;5042066;28;20057;-76
2021/05/18 13:42:32;;;;;;;3.95;1.15;;;;;;;;;;5018159;28;20483;-77
2021/05/18 13:44:57;;;;;;;0.80;0.80;;;;;;;;;;5036083;28;20037;-77
2021/05/18 13:47:22;;;;;;;1.45;1.08;;;;;;;;;;5035564;28;20156;-77
2021/05/18 13:49:48;;;;;;;1.02;0.93;;;;;;;;;;5035368;28;20057;-78
2021/05/18 13:52:14;;;;;;;7.03;1.08;;;;;;;;;;5049230;28;20032;-77
2021/05/18 13:54:39;;;;;;;1.48;1.17;;;;;;;;;;5035187;28;20030;-76
2021/05/18 13:57:06;;;;;;;0.93;0.93;;;;;;;;;;5018166;28;20038;-77
2021/05/18 13:59:32;;;;;;;1.23;1.00;;;;;;;;;;5037314;28;20120;-77
2021/05/18 14:01:57;;;;;;;4.93;2.58;;;;;;;;;;5037483;28;20081;-76
2021/05/18 14:04:23;;;;;;;5.68;3.78;;;;;;;;;;5035995;28;20067;-77
2021/05/18 14:07:00;;;;;;;8.15;4.80;;;;;;;;;;5035359;28;20041;-76
2021/05/18 14:09:31;;;;;;;4.32;1.90;;;;;;;;;;5018833;28;20483;-77
2021/05/18 14:11:56;;;;;;;2.28;1.80;;;;;;;;;;5035232;28;20145;-76
2021/05/18 14:14:22;;;;;;;5.13;1.80;;;;;;;;;;5036250;28;20080;-75
2021/05/18 14:16:47;;;;;;;2.03;1.52;;;;;;;;;;5036157;28;20069;-76
2021/05/18 14:19:12;;;;;;;2.67;1.90;;;;;;;;;;5036023;28;20498;-75
2021/05/18 14:21:40;;;;;;;2.00;1.70;;;;;;;;;;5035092;28;20073;-74
2021/05/18 14:24:13;;;;;;;2.85;1.75;;;;;;;;;;5042999;28;20029;-75
2021/05/18 14:26:39;;;;;;;2.63;1.90;;;;;;;;;;5040803;28;20033;-74
2021/05/18 14:29:04;;;;;;;2.47;2.28;;;;;;;;;;5045256;28;20033;-75
2021/05/18 14:31:30;;;;;;;3.10;1.88;;;;;;;;;;5042931;28;20040;-74
2021/05/18 14:33:55;;;;;;;3.35;1.98;;;;;;;;;;5040838;28;20048;-74
2021/05/18 14:36:21;;;;;;;3.20;2.40;;;;;;;;;;5046903;28;20151;-73
2021/05/18 14:38:49;;;;;;;4.53;2.35;;;;;;;;;;5063100;28;20043;-75
2021/05/18 14:46:28;;;;;;;3.00;2.17;;;;;;;;;;5072504;28;20039;-76
2021/05/18 14:54:42;;;;;;;3.85;2.83;;;;;;;;;;5075715;28;20040;-76
2021/05/18 14:57:08;;;;;;;4.07;2.35;;;;;;;;;;5059784;28;20628;-74
2021/05/18 14:59:34;;;;;;;3.97;1.80;;;;;;;;;;5046693;28;20085;-73
2021/05/18 15:01:59;;;;;;;2.08;1.80;;;;;;;;;;5056711;28;20048;-73
2021/05/18 15:04:25;;;;;;;3.45;2.25;;;;;;;;;;5056605;28;20123;-73
2021/05/18 15:06:50;;;;;;;4.07;2.10;;;;;;;;;;5039087;28;20029;-74
2021/05/18 15:09:16;;;;;;;2.47;1.70;;;;;;;;;;5062699;28;20401;-73
2021/05/18 15:11:42;;;;;;;2.25;2.05;;;;;;;;;;5068479;28;20072;-72
2021/05/18 15:14:08;;;;;;;2.00;1.75;;;;;;;;;;5038249;28;20055;-72
2021/05/18 15:16:34;;;;;;;2.00;1.80;;;;;;;;;;5038230;28;20451;-72
2021/05/18 15:19:18;;;;;;;2.35;2.03;;;;;;;;;;5055780;28;20045;-72
2021/05/18 15:21:44;;;;;;;3.10;2.05;;;;;;;;;;5055833;28;20037;-72
2021/05/18 15:24:11;;;;;;;3.83;2.13;;;;;;;;;;5038158;28;20607;-72
2021/05/18 15:26:37;;;;;;;4.00;2.67;;;;;;;;;;5054854;28;20163;-72
2021/05/18 15:29:05;;;;;;;3.15;1.80;;;;;;;;;;5038072;28;20150;-73
2021/05/18 15:31:32;;;;;;;5.97;1.77;;;;;;;;;;5055548;28;20067;-72
2021/05/18 15:33:58;;;;;;;2.67;1.80;;;;;;;;;;5069112;28;20617;-72
2021/05/18 15:36:23;;;;;;;2.80;2.00;;;;;;;;;;5068731;28;20052;-72
2021/05/18 15:38:49;;;;;;;3.50;2.03;;;;;;;;;;5037848;28;20406;-72
2021/05/18 15:41:15;;;;;;;1.80;1.70;;;;;;;;;;5039666;28;20371;-73
2021/05/18 15:43:41;;;;;;;5.38;1.90;;;;;;;;;;5048504;28;20020;-73
2021/05/18 15:46:07;;;;;;;2.53;2.08;;;;;;;;;;5066618;28;20032;-73
2021/05/18 15:48:33;;;;;;;2.72;2.15;;;;;;;;;;5057003;28;20086;-72
2021/05/18 15:50:59;;;;;;;2.35;1.80;;;;;;;;;;5047093;28;20033;-73
2021/05/18 15:53:24;;;;;;;3.35;2.13;;;;;;;;;;5054646;28;20068;-72
2021/05/18 15:55:50;;;;;;;3.05;2.13;;;;;;;;;;5073717;28;20067;-73
2021/05/18 15:58:15;;;;;;;4.32;1.90;;;;;;;;;;5040092;28;20097;-73
2021/05/18 16:00:41;;;;;;;3.67;1.90;;;;;;;;;;5071284;28;20108;-73
2021/05/18 16:03:06;;;;;;;2.72;2.10;;;;;;;;;;5057028;28;20045;-73
2021/05/18 16:05:33;;;;;;;2.75;2.45;;;;;;;;;;5041384;28;20487;-73
2021/05/18 16:08:59;;;;;;;1.70;1.60;;;;;;;;;;5039930;28;20395;-74
2021/05/18 16:10:59;;;;;;;2.97;2.00;;;;;;;;;;5048278;28;20048;-73
2021/05/18 16:13:25;;;;;;;5.75;2.00;;;;;;;;;;5064185;28;20036;-73
2021/05/18 16:15:50;;;;;;;2.75;1.70;;;;;;;;;;5046048;28;20058;-73
2021/05/18 16:18:16;;;;;;;1.67;1.58;;;;;;;;;;5043011;28;20040;-75
2021/05/18 16:20:42;;;;;;;4.28;1.20;;;;;;;;;;5064551;28;20024;-73
2021/05/18 16:23:08;;;;;;;1.50;1.10;;;;;;;;;;5046338;28;20036;-73
2021/05/18 16:25:34;;;;;;;2.00;1.17;;;;;;;;;;5041394;28;20028;-73
2021/05/18 16:28:00;;;;;;;1.50;1.20;;;;;;;;;;5061353;28;20382;-73
2021/05/18 16:30:25;;;;;;;1.65;1.30;;;;;;;;;;5053257;28;20037;-73
2021/05/18 16:32:51;;;;;;;1.65;1.23;;;;;;;;;;5061965;28;20109;-73
2021/05/18 16:35:16;;;;;;;1.40;1.30;;;;;;;;;;5061258;28;20474;-73
2021/05/18 16:37:43;;;;;;;5.32;2.10;;;;;;;;;;5062559;28;20470;-73
2021/05/18 16:40:09;;;;;;;1.90;1.15;;;;;;;;;;5039924;28;20491;-73
2021/05/18 16:42:35;;;;;;;2.10;1.40;;;;;;;;;;5063293;28;20048;-73
2021/05/18 16:45:05;;;;;;;1.60;1.38;;;;;;;;;;5061358;28;20029;-73
2021/05/18 16:47:30;;;;;;;1.80;1.30;;;;;;;;;;5062953;28;20032;-73
2021/05/18 16:49:56;;;;;;;1.50;1.40;;;;;;;;;;5063046;28;20058;-72
2021/05/18 16:52:21;;;;;;;2.15;1.70;;;;;;;;;;5050964;28;20036;-73
2021/05/18 16:54:47;;;;;;;2.85;1.70;;;;;;;;;;5045943;28;20467;-72
2021/05/18 16:57:12;;;;;;;3.72;2.15;;;;;;;;;;5054933;28;20479;-72
2021/05/18 16:59:38;;;;;;;1.52;1.42;;;;;;;;;;5056418;28;20491;-72
2021/05/18 17:02:03;;;;;;;4.70;2.47;;;;;;;;;;5056265;28;20560;-73
2021/05/18 17:04:29;;;;;;;3.00;2.30;;;;;;;;;;5039367;28;20114;-74
2021/05/18 17:06:55;;;;;;;3.65;2.47;;;;;;;;;;5056926;28;20493;-72
2021/05/18 17:09:21;;;;;;;5.07;2.45;;;;;;;;;;5039019;28;20041;-74
2021/05/18 17:11:46;;;;;;;3.60;2.63;;;;;;;;;;5056766;28;20125;-75
2021/05/18 17:14:12;;;;;;;4.13;2.42;;;;;;;;;;5055865;28;20033;-74
2021/05/18 17:16:39;;;;;;;2.70;2.08;;;;;;;;;;5039202;28;20036;-74
2021/05/18 17:19:05;;;;;;;2.88;2.10;;;;;;;;;;5057047;28;20063;-74
2021/05/18 17:21:31;;;;;;;3.60;1.95;;;;;;;;;;5057809;28;20025;-75
2021/05/18 17:23:57;;;;;;;4.65;2.20;;;;;;;;;;5024787;28;20108;-77
2021/05/18 17:26:22;;;;;;;2.85;2.20;;;;;;;;;;5058070;28;20073;-74
2021/05/18 17:28:48;;;;;;;2.35;1.90;;;;;;;;;;5058158;28;20048;-74
2021/05/18 17:31:15;;;;;;;2.40;1.90;;;;;;;;;;5058320;28;20033;-76
2021/05/18 17:33:41;;;;;;;2.33;1.77;;;;;;;;;;5039988;28;20135;-77
2021/05/18 17:36:07;;;;;;;4.80;1.70;;;;;;;;;;5056462;28;20039;-75
2021/05/18 17:38:33;;;;;;;7.43;2.28;;;;;;;;;;5037681;28;20032;-74
2021/05/18 17:41:01;;;;;;;4.25;2.28;;;;;;;;;;5054809;28;20086;-76
2021/05/18 17:43:26;;;;;;;3.97;2.53;;;;;;;;;;5055879;28;20045;-75
2021/05/18 17:45:52;;;;;;;3.97;1.85;;;;;;;;;;5055736;28;20036;-77
2021/05/18 17:48:17;;;;;;;2.72;1.98;;;;;;;;;;5055705;28;20055;-76
2021/05/18 17:50:42;;;;;;;2.10;1.88;;;;;;;;;;5054284;28;20040;-76
2021/05/18 17:53:08;;;;;;;3.65;1.80;;;;;;;;;;5055393;28;20045;-76
2021/05/18 17:55:34;;;;;;;5.05;1.73;;;;;;;;;;5055308;28;20037;-76
2021/05/18 17:58:00;;;;;;;2.50;1.95;;;;;;;;;;5055701;28;20051;-76
2021/05/18 18:00:25;;;;;;;2.20;1.77;;;;;;;;;;5055809;28;20033;-76
2021/05/18 18:02:51;;;;;;;3.05;2.08;;;;;;;;;;5055496;28;20052;-76
2021/05/18 18:05:17;;;;;;;3.08;1.90;;;;;;;;;;5037624;28;20041;-75
2021/05/18 18:07:43;;;;;;;4.47;2.03;;;;;;;;;;5055156;28;20044;-76
2021/05/18 18:10:09;;;;;;;4.05;2.28;;;;;;;;;;5054959;28;20025;-76
2021/05/18 18:12:35;;;;;;;3.28;2.20;;;;;;;;;;5054137;28;20033;-76
2021/05/18 18:15:03;;;;;;;3.20;2.05;;;;;;;;;;5037159;28;20060;-76
2021/05/18 18:17:29;;;;;;;2.15;1.95;;;;;;;;;;5054570;28;20029;-76
2021/05/18 18:19:55;;;;;;;3.92;2.25;;;;;;;;;;5036922;28;20029;-75
2021/05/18 18:22:22;;;;;;;4.15;2.40;;;;;;;;;;5054137;28;20043;-76
2021/05/18 18:24:48;;;;;;;4.75;2.30;;;;;;;;;;5037195;28;20037;-76
2021/05/18 18:27:17;;;;;;;2.28;1.88;;;;;;;;;;5054035;28;20024;-76
2021/05/18 18:29:43;;;;;;;3.13;2.13;;;;;;;;;;5055011;28;20029;-76
2021/05/18 18:32:09;;;;;;;4.10;2.22;;;;;;;;;;5054452;28;20029;-75
2021/05/18 18:34:36;;;;;;;5.90;2.13;;;;;;;;;;5054109;28;20490;-76
2021/05/18 18:37:04;;;;;;;2.78;2.42;;;;;;;;;;5054864;28;20037;-76
2021/05/18 18:39:30;;;;;;;5.28;2.78;;;;;;;;;;5038447;28;20044;-76
2021/05/18 18:41:55;;;;;;;3.40;2.80;;;;;;;;;;5062730;28;20029;-76
2021/05/18 18:44:21;;;;;;;6.22;2.97;;;;;;;;;;5063250;28;20036;-76
2021/05/18 18:46:46;;;;;;;3.75;2.88;;;;;;;;;;5044104;28;20048;-76
2021/05/18 18:49:15;;;;;;;3.13;2.47;;;;;;;;;;5064544;28;20056;-76
2021/05/18 18:51:43;;;;;;;3.30;2.40;;;;;;;;;;5061098;28;20029;-76
2021/05/18 18:54:09;;;;;;;2.97;2.10;;;;;;;;;;5059924;28;20493;-76
2021/05/18 18:56:35;;;;;;;2.97;2.03;;;;;;;;;;5061288;28;20086;-77
2021/05/18 18:59:00;;;;;;;3.83;2.50;;;;;;;;;;5064691;28;20040;-76
2021/05/18 19:01:46;;;;;;;3.15;2.20;;;;;;;;;;5044665;28;20189;-75
2021/05/18 19:04:18;;;;;;;3.65;2.60;;;;;;;;;;5042114;28;20123;-76
2021/05/18 19:14:22;;;;;;;5.20;2.22;;;;;;;;;;5061549;28;20127;-77
2021/05/18 19:16:49;;;;;;;3.33;1.77;;;;;;;;;;5061658;28;20116;-77
2021/05/18 19:19:16;;;;;;;2.22;2.00;;;;;;;;;;5045259;28;20044;-76
2021/05/18 19:21:43;;;;;;;2.15;1.95;;;;;;;;;;5043775;28;20029;-77
2021/05/18 19:24:09;;;;;;;3.40;2.00;;;;;;;;;;5059788;28;20056;-77
2021/05/18 19:26:35;;;;;;;3.13;1.80;;;;;;;;;;5064811;28;20074;-77
2021/05/18 19:29:00;;;;;;;2.42;2.20;;;;;;;;;;5045069;28;20055;-76
2021/05/18 19:31:26;;;;;;;3.72;2.40;;;;;;;;;;5063695;28;20393;-76
2021/05/18 19:33:55;;;;;;;3.50;2.42;;;;;;;;;;5059670;28;20056;-76
2021/05/18 19:49:23;;;;;;;3.75;2.38;;;;;;;;;;5060539;28;20036;-78
2021/05/18 19:51:49;;;;;;;2.42;2.22;;;;;;;;;;5058712;28;20040;-77
2021/05/18 19:54:24;;;;;;;2.55;2.00;;;;;;;;;;5062373;28;20037;-78
2021/05/18 19:57:05;;;;;;;2.88;1.98;;;;;;;;;;5032539;28;20043;-77
2021/05/18 20:23:23;;;;;;;18.13;5.63;;;;;;;;;;5049395;28;20036;-77
2021/05/18 20:25:49;;;;;;;3.92;2.42;;;;;;;;;;5059272;28;20025;-77
2021/05/18 20:28:16;;;;;;;2.42;1.95;;;;;;;;;;5034821;28;20457;-76
2021/05/18 20:30:41;;;;;;;3.33;2.50;;;;;;;;;;5016332;28;20065;-78
2021/05/18 20:33:11;;;;;;;2.88;2.00;;;;;;;;;;5033138;28;529086;-77